Auroraville, Wisconsin
Current Conditions -  °F | °C
As of 3:56 AM on Sunday 25 Jan 2015 (Local Time) from KY50 Reporting Station
Overcast Overcast  
Wind Chill:   Ceiling: 2500
Heat Index: 22°   Visibility: 10mi
Dew Point: 16°   Wind: 15mph
Humidity: 78%   Direction: 60°ENE
Pressure: 29.82"   Gusts: 20mph
Location:  43.9938°N, 88.9686°W
Report Text: KY50 250956Z AUTO 06013G17KT 10SM FEW019 OVC025 M06/M09 A2982 RMK AO2 TSNO T10551088 SLP105
Loading
Personal Weather Stations






























Interactive Weather Map New forecast layout! Learn more

10-Day Weather Forecast

Advertisements
Track Severe Weather on mobile